createdAt,value
2023-02-09T00:01:31.505Z,54.75
2023-02-09T00:03:59.731Z,54.64
2023-02-09T00:06:29.846Z,54.42
2023-02-09T00:08:57.960Z,55.19
2023-02-09T00:11:47.446Z,54.73
2023-02-09T00:14:15.807Z,54.33
2023-02-09T00:16:42.945Z,54.90
2023-02-09T00:19:10.462Z,54.88
2023-02-09T00:21:37.960Z,55.59
2023-02-09T00:24:05.307Z,56.01
2023-02-09T00:26:32.467Z,57.81
2023-02-09T00:28:59.320Z,58.54
2023-02-09T00:31:26.171Z,56.40
2023-02-09T00:33:52.801Z,56.90
2023-02-09T00:36:19.610Z,56.19
2023-02-09T00:38:47.693Z,55.77
2023-02-09T00:41:16.768Z,56.01
2023-02-09T00:43:43.371Z,55.91
2023-02-09T00:46:10.129Z,55.93
2023-02-09T00:48:36.694Z,56.67
2023-02-09T00:51:03.426Z,56.55
2023-02-09T00:53:30.084Z,56.42
2023-02-09T00:55:56.690Z,56.82
2023-02-09T00:58:23.251Z,55.65
2023-02-09T01:00:50.032Z,55.58
2023-02-09T01:03:16.699Z,55.00
2023-02-09T01:05:43.653Z,54.74
2023-02-09T01:08:11.906Z,55.30
2023-02-09T01:10:39.362Z,55.31
2023-02-09T01:13:06.713Z,55.53
2023-02-09T01:15:33.294Z,56.04
2023-02-09T01:17:59.953Z,57.76
2023-02-09T01:20:27.418Z,59.57
2023-02-09T01:22:54.045Z,60.83
2023-02-09T01:25:20.912Z,60.23
2023-02-09T01:27:48.104Z,60.62
2023-02-09T01:30:15.072Z,58.52
2023-02-09T01:32:41.655Z,58.30
2023-02-09T01:35:08.598Z,57.57
2023-02-09T01:37:35.699Z,58.12
2023-02-09T01:40:03.257Z,60.51
2023-02-09T01:42:30.077Z,60.73
2023-02-09T01:45:20.119Z,58.09
2023-02-09T01:47:56.549Z,58.87
2023-02-09T01:50:26.342Z,58.10
2023-02-09T01:52:53.657Z,57.32
2023-02-09T01:55:26.086Z,56.43
2023-02-09T01:57:57.985Z,56.17
2023-02-09T02:00:26.469Z,55.62
2023-02-09T02:02:57.814Z,55.68
2023-02-09T02:05:25.943Z,55.51
2023-02-09T02:08:08.340Z,55.44
2023-02-09T02:10:34.997Z,55.18
2023-02-09T02:13:02.153Z,55.32
2023-02-09T02:15:59.174Z,55.54
2023-02-09T02:18:39.081Z,55.47
2023-02-09T02:21:20.681Z,55.54
2023-02-09T02:23:53.329Z,55.34
2023-02-09T02:26:49.921Z,54.79
2023-02-09T02:29:36.491Z,56.24
2023-02-09T02:32:10.880Z,55.06
2023-02-09T02:34:53.177Z,55.53
2023-02-09T02:37:22.622Z,55.42
2023-02-09T02:40:00.052Z,55.30
2023-02-09T02:42:49.145Z,54.86
2023-02-09T02:45:32.952Z,54.43
2023-02-09T02:48:34.811Z,54.83
2023-02-09T02:51:17.001Z,54.58
2023-02-09T02:53:48.849Z,56.14
2023-02-09T02:56:20.618Z,56.46
2023-02-09T02:58:50.924Z,55.86
2023-02-09T03:01:22.987Z,56.04
2023-02-09T03:03:51.552Z,55.67
2023-02-09T03:06:18.438Z,55.85
2023-02-09T03:08:56.508Z,56.48
2023-02-09T03:11:27.784Z,56.29
2023-02-09T03:14:19.014Z,55.79
2023-02-09T03:16:49.667Z,56.56
2023-02-09T03:19:30.467Z,57.16
2023-02-09T03:25:12.464Z,58.10
2023-02-09T03:27:49.984Z,57.67
2023-02-09T03:30:17.363Z,56.42
2023-02-09T03:32:46.700Z,57.74
2023-02-09T03:35:17.277Z,58.07
2023-02-09T03:37:43.929Z,57.62
2023-02-09T03:40:11.070Z,55.99
2023-02-09T03:42:37.797Z,55.68
2023-02-09T03:45:04.641Z,55.53
2023-02-09T03:47:31.223Z,55.55
2023-02-09T03:49:58.365Z,55.59
2023-02-09T03:52:25.117Z,55.80
2023-02-09T03:54:51.777Z,55.53
2023-02-09T03:57:18.471Z,55.85
2023-02-09T03:59:45.022Z,56.36
2023-02-09T04:02:11.706Z,55.34
2023-02-09T04:04:38.302Z,55.70
2023-02-09T04:07:04.945Z,55.52
2023-02-09T04:09:31.611Z,55.42
2023-02-09T04:11:58.131Z,55.34
2023-02-09T04:14:24.817Z,55.06
2023-02-09T04:16:51.370Z,55.33
2023-02-09T04:19:17.940Z,55.19
2023-02-09T04:21:44.560Z,55.77
2023-02-09T04:24:11.262Z,55.61
2023-02-09T04:26:38.149Z,56.28
2023-02-09T04:29:04.875Z,55.77
2023-02-09T04:31:32.005Z,56.90
2023-02-09T04:33:58.635Z,56.09
2023-02-09T04:36:25.161Z,55.15
2023-02-09T04:38:51.755Z,55.12
2023-02-09T04:41:18.301Z,55.61
2023-02-09T04:43:46.179Z,56.05
2023-02-09T04:46:17.562Z,55.78
2023-02-09T04:48:45.417Z,55.23
2023-02-09T04:51:12.339Z,55.82
2023-02-09T04:53:38.890Z,55.79
2023-02-09T04:56:05.860Z,55.30
2023-02-09T04:58:51.372Z,55.43
2023-02-09T05:01:23.522Z,54.92
2023-02-09T05:03:50.598Z,55.13
2023-02-09T05:06:17.339Z,54.88
2023-02-09T05:08:44.379Z,55.46
2023-02-09T05:11:11.572Z,54.65
2023-02-09T05:13:38.165Z,54.54
2023-02-09T05:16:06.739Z,55.33
2023-02-09T05:18:33.508Z,55.27
2023-02-09T05:21:00.102Z,54.53
2023-02-09T05:23:26.747Z,55.21
2023-02-09T05:25:54.568Z,55.31
2023-02-09T05:28:21.139Z,54.92
2023-02-09T05:30:53.478Z,55.13
2023-02-09T05:33:21.644Z,55.09
2023-02-09T05:35:48.262Z,55.11
2023-02-09T05:38:14.972Z,54.56
2023-02-09T05:40:42.750Z,55.29
2023-02-09T05:43:10.488Z,54.88
2023-02-09T05:45:37.058Z,55.46
2023-02-09T05:48:03.858Z,55.10
2023-02-09T05:50:30.468Z,54.93
2023-02-09T05:53:00.089Z,54.80
2023-02-09T05:55:26.913Z,54.82
2023-02-09T05:57:53.466Z,54.97
2023-02-09T06:00:20.706Z,54.75
2023-02-09T06:02:47.498Z,54.55
2023-02-09T06:05:14.063Z,54.29
2023-02-09T06:07:40.627Z,55.09
2023-02-09T06:10:07.525Z,55.44
2023-02-09T06:12:34.079Z,55.65
2023-02-09T06:15:00.630Z,55.50
2023-02-09T06:17:27.480Z,55.06
2023-02-09T06:19:54.057Z,55.34
2023-02-09T06:22:20.634Z,55.59
2023-02-09T06:24:47.248Z,56.08
2023-02-09T06:27:13.858Z,56.34
2023-02-09T06:29:40.729Z,57.42
2023-02-09T06:32:07.436Z,57.14
2023-02-09T06:34:34.438Z,56.70
2023-02-09T06:37:01.037Z,57.52
2023-02-09T06:39:27.658Z,57.90
2023-02-09T06:41:54.227Z,59.00
2023-02-09T06:44:20.969Z,57.70
2023-02-09T06:46:47.618Z,57.40
2023-02-09T06:49:14.196Z,57.61
2023-02-09T06:51:40.781Z,57.28
2023-02-09T06:54:07.567Z,56.91
2023-02-09T06:56:34.198Z,57.02
2023-02-09T06:59:00.782Z,56.43
2023-02-09T07:01:27.413Z,57.57
2023-02-09T07:03:53.989Z,58.40
2023-02-09T07:06:21.352Z,59.33
2023-02-09T07:08:49.761Z,60.41
2023-02-09T07:11:19.702Z,60.49
2023-02-09T07:13:46.785Z,60.63
2023-02-09T07:16:14.441Z,61.50
2023-02-09T07:18:41.757Z,60.22
2023-02-09T07:21:11.458Z,60.22
2023-02-09T07:23:38.397Z,59.91
2023-02-09T07:26:07.443Z,59.41
2023-02-09T07:28:35.711Z,57.66
2023-02-09T07:31:05.202Z,57.81
2023-02-09T07:33:32.602Z,56.22
2023-02-09T07:35:59.404Z,55.54
2023-02-09T07:38:26.160Z,55.09
2023-02-09T07:40:53.194Z,54.85
2023-02-09T07:43:19.760Z,55.01
2023-02-09T07:45:46.771Z,56.58
2023-02-09T07:48:13.616Z,56.93
2023-02-09T07:50:40.569Z,57.09
2023-02-09T07:53:07.984Z,58.38
2023-02-09T07:55:34.586Z,59.61
2023-02-09T07:58:01.332Z,62.04
2023-02-09T08:00:27.954Z,59.99
2023-02-09T08:02:54.935Z,61.01
2023-02-09T08:05:28.821Z,60.46
2023-02-09T08:07:56.004Z,60.49
2023-02-09T08:10:23.205Z,59.42
2023-02-09T08:13:03.476Z,61.21
2023-02-09T08:15:41.352Z,62.35
2023-02-09T08:18:32.293Z,61.53
2023-02-09T08:20:58.840Z,62.21
2023-02-09T08:23:29.484Z,62.55
2023-02-09T08:25:57.781Z,62.23
2023-02-09T08:28:38.179Z,61.79
2023-02-09T08:31:10.993Z,62.14
2023-02-09T08:33:37.626Z,60.93
2023-02-09T08:36:04.313Z,60.61
2023-02-09T08:38:30.876Z,59.65
2023-02-09T08:40:57.569Z,60.20
2023-02-09T08:43:24.156Z,60.78
2023-02-09T08:45:51.438Z,60.79
2023-02-09T08:48:18.249Z,61.85
2023-02-09T08:50:44.778Z,61.94
2023-02-09T08:53:11.418Z,62.91
2023-02-09T08:55:39.110Z,61.43
2023-02-09T08:58:07.520Z,60.36
2023-02-09T09:00:34.247Z,61.06
2023-02-09T09:03:04.711Z,61.02
2023-02-09T09:05:32.191Z,61.17
2023-02-09T09:07:58.816Z,61.44
2023-02-09T09:10:25.369Z,61.44
2023-02-09T09:12:52.081Z,61.27
2023-02-09T09:15:19.036Z,61.58
2023-02-09T09:17:45.604Z,61.12
2023-02-09T09:20:12.365Z,61.78
2023-02-09T09:22:39.043Z,61.58
2023-02-09T09:25:06.013Z,62.17
2023-02-09T09:27:32.765Z,62.53
2023-02-09T09:29:59.390Z,62.92
2023-02-09T09:32:26.040Z,61.75
2023-02-09T09:34:58.204Z,63.81
2023-02-09T09:37:26.236Z,62.20
2023-02-09T09:39:53.195Z,62.70
2023-02-09T09:42:29.692Z,62.15
2023-02-09T09:44:56.308Z,61.39
2023-02-09T09:47:34.624Z,62.94
2023-02-09T09:50:01.241Z,63.03
2023-02-09T09:52:33.279Z,62.18
2023-02-09T09:55:01.758Z,63.15
2023-02-09T09:57:30.999Z,62.90
2023-02-09T09:59:57.983Z,63.10
2023-02-09T10:02:30.831Z,63.57
2023-02-09T10:05:20.936Z,62.48
2023-02-09T10:08:01.055Z,62.53
2023-02-09T10:10:37.991Z,63.52
2023-02-09T10:13:15.985Z,62.54
2023-02-09T10:15:48.400Z,62.95
2023-02-09T10:18:17.670Z,61.80
2023-02-09T10:20:50.275Z,63.01
2023-02-09T10:23:25.162Z,61.77
2023-02-09T10:25:59.150Z,62.69
2023-02-09T10:28:32.225Z,62.43
2023-02-09T10:31:02.273Z,61.92
2023-02-09T10:33:36.808Z,63.22
2023-02-09T10:36:06.599Z,62.12
2023-02-09T10:38:33.679Z,61.64
2023-02-09T10:41:01.416Z,61.46
2023-02-09T10:43:34.609Z,60.66
2023-02-09T10:46:10.318Z,59.70
2023-02-09T10:48:45.067Z,61.88
2023-02-09T10:51:29.587Z,61.77
2023-02-09T10:54:02.863Z,60.25
2023-02-09T10:56:41.425Z,59.64
2023-02-09T10:59:17.460Z,60.54
2023-02-09T11:01:51.150Z,60.15
2023-02-09T11:04:24.269Z,59.88
2023-02-09T11:06:53.743Z,58.83
2023-02-09T11:09:28.952Z,58.55
2023-02-09T11:11:55.854Z,59.00
2023-02-09T11:14:23.187Z,58.79
2023-02-09T11:17:09.277Z,57.91
2023-02-09T11:20:17.430Z,57.86
2023-02-09T11:23:00.232Z,57.31
2023-02-09T11:25:37.810Z,57.44
2023-02-09T11:28:27.252Z,56.14
2023-02-09T11:31:07.840Z,56.35
2023-02-09T11:33:43.084Z,55.89
2023-02-09T11:36:30.779Z,56.64
2023-02-09T11:39:01.749Z,55.26
2023-02-09T11:42:00.812Z,54.70
2023-02-09T11:44:43.965Z,56.12
2023-02-09T11:47:20.887Z,55.89
2023-02-09T11:49:53.547Z,55.19
2023-02-09T11:52:52.750Z,55.86
2023-02-09T11:55:41.120Z,55.19
2023-02-09T11:58:24.883Z,54.89
2023-02-09T12:01:15.613Z,54.69
2023-02-09T12:04:01.068Z,53.72
2023-02-09T12:06:32.224Z,53.63
2023-02-09T12:09:11.193Z,54.65
2023-02-09T12:11:55.734Z,54.73
2023-02-09T12:14:46.636Z,53.18
2023-02-09T12:17:16.882Z,53.76
2023-02-09T12:19:46.303Z,53.97
2023-02-09T12:22:34.649Z,53.91
2023-02-09T12:25:31.698Z,53.11
2023-02-09T12:28:16.862Z,52.29
2023-02-09T12:30:43.475Z,52.80
2023-02-09T12:33:29.092Z,53.11
2023-02-09T12:36:00.781Z,52.48
2023-02-09T12:38:56.874Z,54.32
2023-02-09T12:41:34.385Z,54.23
2023-02-09T12:44:09.748Z,52.77
2023-02-09T12:46:45.649Z,52.59
2023-02-09T12:49:12.146Z,51.28
2023-02-09T12:51:55.480Z,52.04
2023-02-09T12:54:50.963Z,51.66
2023-02-09T12:57:20.306Z,50.95
2023-02-09T12:59:49.788Z,52.23
2023-02-09T13:02:48.406Z,50.48
2023-02-09T13:05:29.781Z,50.53
2023-02-09T13:08:11.746Z,51.08
2023-02-09T13:10:48.680Z,50.46
2023-02-09T13:13:26.077Z,51.06
2023-02-09T13:16:24.382Z,51.07
2023-02-09T13:19:09.724Z,51.13
2023-02-09T13:21:52.298Z,50.40
2023-02-09T13:24:23.916Z,50.94
2023-02-09T13:26:54.799Z,51.03
2023-02-09T13:29:22.559Z,50.28
2023-02-09T13:32:11.744Z,49.76
2023-02-09T13:34:51.893Z,50.91
2023-02-09T13:37:45.254Z,50.30
2023-02-09T13:40:17.789Z,48.37
2023-02-09T13:43:10.625Z,49.23
2023-02-09T13:45:47.253Z,50.18
2023-02-09T13:48:27.566Z,50.11
2023-02-09T13:50:56.151Z,49.50
2023-02-09T13:53:25.219Z,49.53
2023-02-09T13:55:54.067Z,49.17
2023-02-09T13:58:25.867Z,49.13
2023-02-09T14:00:56.599Z,48.60
2023-02-09T14:03:26.687Z,47.31
2023-02-09T14:05:59.257Z,47.69
2023-02-09T14:08:27.253Z,47.49
2023-02-09T14:11:03.083Z,49.33
2023-02-09T14:13:36.670Z,48.12
2023-02-09T14:16:07.260Z,48.33
2023-02-09T14:19:00.601Z,47.70
2023-02-09T14:21:40.066Z,47.80
2023-02-09T14:24:08.457Z,47.84
2023-02-09T14:26:42.339Z,47.17
2023-02-09T14:29:36.104Z,46.86
2023-02-09T14:32:32.865Z,47.60
2023-02-09T14:35:16.358Z,47.79
2023-02-09T14:37:44.243Z,46.55
2023-02-09T14:40:10.742Z,46.81
2023-02-09T14:42:54.835Z,46.59
2023-02-09T14:45:34.985Z,47.87
2023-02-09T14:48:01.539Z,47.60
2023-02-09T14:50:28.116Z,46.14
2023-02-09T14:53:05.808Z,47.45
2023-02-09T14:55:35.666Z,47.19
2023-02-09T14:58:30.092Z,46.68
2023-02-09T15:00:59.969Z,47.02
2023-02-09T15:03:27.000Z,46.88
2023-02-09T15:06:00.626Z,46.91
2023-02-09T15:08:30.221Z,46.04
2023-02-09T15:11:02.851Z,47.26
2023-02-09T15:13:31.205Z,46.55
2023-02-09T15:15:57.798Z,47.00
2023-02-09T15:18:26.602Z,46.20
2023-02-09T15:20:53.376Z,46.34
2023-02-09T15:23:19.984Z,46.08
2023-02-09T15:25:46.934Z,46.76
2023-02-09T15:28:28.492Z,46.58
2023-02-09T15:30:56.696Z,46.88
2023-02-09T15:33:25.385Z,46.77
2023-02-09T15:35:52.049Z,47.35
2023-02-09T15:38:18.847Z,47.38
2023-02-09T15:41:06.369Z,47.14
2023-02-09T15:43:51.464Z,46.58
2023-02-09T15:46:36.737Z,46.63
2023-02-09T15:49:05.412Z,46.21
2023-02-09T15:51:36.488Z,45.91
2023-02-09T15:54:15.319Z,46.55
2023-02-09T15:56:42.199Z,45.76
2023-02-09T15:59:17.955Z,46.52
2023-02-09T16:01:44.793Z,46.54
2023-02-09T16:04:14.385Z,46.11
2023-02-09T16:06:48.624Z,45.01
2023-02-09T16:09:19.279Z,47.39
2023-02-09T16:11:45.849Z,45.26
2023-02-09T16:14:17.880Z,45.60
2023-02-09T16:16:45.741Z,46.37
2023-02-09T16:19:13.364Z,48.94
2023-02-09T16:21:42.581Z,47.26
2023-02-09T16:24:39.288Z,48.62
2023-02-09T16:27:21.673Z,48.72
2023-02-09T16:29:48.323Z,48.16
2023-02-09T16:32:17.178Z,49.31
2023-02-09T16:34:44.433Z,48.16
2023-02-09T16:37:16.382Z,49.75
2023-02-09T16:39:43.375Z,48.64
2023-02-09T16:42:12.817Z,50.49
2023-02-09T16:44:39.779Z,50.64
2023-02-09T16:47:15.556Z,51.25
2023-02-09T16:49:47.472Z,50.83
2023-02-09T16:52:21.749Z,49.83
2023-02-09T16:54:50.863Z,50.38
2023-02-09T16:57:20.903Z,50.58
2023-02-09T16:59:47.756Z,50.47
2023-02-09T17:02:32.096Z,51.56
2023-02-09T17:04:59.655Z,52.25
2023-02-09T17:07:31.064Z,51.53
2023-02-09T17:09:57.735Z,51.00
2023-02-09T17:12:24.307Z,50.98
2023-02-09T17:14:50.854Z,51.25
2023-02-09T17:17:20.167Z,51.60
2023-02-09T17:19:48.419Z,51.08
2023-02-09T17:22:16.464Z,51.17
2023-02-09T17:24:43.062Z,51.37
2023-02-09T17:27:10.087Z,51.90
2023-02-09T17:29:36.655Z,51.42
2023-02-09T17:32:03.548Z,52.36
2023-02-09T17:34:30.166Z,52.16
2023-02-09T17:36:58.093Z,51.75
2023-02-09T17:39:24.973Z,52.67
2023-02-09T17:41:51.690Z,53.27
2023-02-09T17:44:43.772Z,53.32
2023-02-09T17:47:17.385Z,53.54
2023-02-09T17:49:44.134Z,52.89
2023-02-09T17:52:19.286Z,51.69
2023-02-09T17:54:46.544Z,54.43
2023-02-09T17:57:17.432Z,53.87
2023-02-09T17:59:44.050Z,54.79
2023-02-09T18:02:16.591Z,54.20
2023-02-09T18:04:43.351Z,54.65
2023-02-09T18:07:10.113Z,54.83
2023-02-09T18:09:36.868Z,54.78
2023-02-09T18:12:07.759Z,54.45
2023-02-09T18:14:34.670Z,54.26
2023-02-09T18:17:01.578Z,54.69
2023-02-09T18:19:28.584Z,54.84
2023-02-09T18:21:58.672Z,56.02
2023-02-09T18:24:27.919Z,55.74
2023-02-09T18:26:54.853Z,55.41
2023-02-09T18:29:23.582Z,55.83
2023-02-09T18:31:51.066Z,55.83
2023-02-09T18:34:17.743Z,55.90
2023-02-09T18:36:44.472Z,56.01
2023-02-09T18:39:11.060Z,56.42
2023-02-09T18:41:37.644Z,55.91
2023-02-09T18:44:04.221Z,56.58
2023-02-09T18:46:30.814Z,55.87
2023-02-09T18:48:58.352Z,55.75
2023-02-09T18:51:25.054Z,56.63
2023-02-09T18:53:51.696Z,56.98
2023-02-09T18:56:20.889Z,56.09
2023-02-09T18:58:49.908Z,56.03
2023-02-09T19:01:20.425Z,55.32
2023-02-09T19:03:50.314Z,56.80
2023-02-09T19:06:20.128Z,56.34
2023-02-09T19:08:47.383Z,55.56
2023-02-09T19:11:15.850Z,56.98
2023-02-09T19:13:42.436Z,56.57
2023-02-09T19:16:12.838Z,55.33
2023-02-09T19:18:39.493Z,54.70
2023-02-09T19:21:07.192Z,54.85
2023-02-09T19:23:34.149Z,56.25
2023-02-09T19:26:04.965Z,57.41
2023-02-09T19:28:31.658Z,56.97
2023-02-09T19:30:58.279Z,55.28
2023-02-09T19:33:25.348Z,55.04
2023-02-09T19:35:58.952Z,54.62
2023-02-09T19:38:26.465Z,54.52
2023-02-09T19:41:08.505Z,55.12
2023-02-09T19:43:36.180Z,54.46
2023-02-09T19:46:04.472Z,55.04
2023-02-09T19:48:31.553Z,55.56
2023-02-09T19:50:58.914Z,56.03
2023-02-09T19:53:26.669Z,56.39
2023-02-09T19:55:54.174Z,56.04
2023-02-09T19:58:23.585Z,56.75
2023-02-09T20:00:51.307Z,55.75
2023-02-09T20:03:18.642Z,54.98
2023-02-09T20:05:46.347Z,56.43
2023-02-09T20:08:16.414Z,55.72
2023-02-09T20:10:44.219Z,55.72
2023-02-09T20:13:12.598Z,55.46
2023-02-09T20:15:43.465Z,56.18
2023-02-09T20:18:11.385Z,55.77
2023-02-09T20:20:42.886Z,55.72
2023-02-09T20:23:10.088Z,55.68
2023-02-09T20:25:40.333Z,55.78
2023-02-09T20:28:06.993Z,55.63
2023-02-09T20:30:33.841Z,56.00
2023-02-09T20:33:00.458Z,56.12
2023-02-09T20:35:27.076Z,56.23
2023-02-09T20:37:53.806Z,57.34
2023-02-09T20:40:20.415Z,57.70
2023-02-09T20:43:05.580Z,56.48
2023-02-09T20:45:50.850Z,55.83
2023-02-09T20:48:17.818Z,56.65
2023-02-09T20:50:45.247Z,58.41
2023-02-09T20:53:12.551Z,59.12
2023-02-09T20:55:39.118Z,59.61
2023-02-09T20:58:05.720Z,59.61
2023-02-09T21:00:32.303Z,59.96
2023-02-09T21:02:58.969Z,60.44
2023-02-09T21:05:25.556Z,60.85
2023-02-09T21:07:52.182Z,60.74
2023-02-09T21:10:18.804Z,60.42
2023-02-09T21:12:46.971Z,60.17
2023-02-09T21:15:14.570Z,60.12
2023-02-09T21:17:47.417Z,61.21
2023-02-09T21:20:17.160Z,61.30
2023-02-09T21:22:43.732Z,59.75
2023-02-09T21:25:10.352Z,58.59
2023-02-09T21:27:37.074Z,57.84
2023-02-09T21:30:04.781Z,57.20
2023-02-09T21:32:34.782Z,57.51
2023-02-09T21:35:01.490Z,57.86
2023-02-09T21:37:30.931Z,58.18
2023-02-09T21:40:01.953Z,57.61
2023-02-09T21:42:30.638Z,57.44
2023-02-09T21:44:58.116Z,57.44
2023-02-09T21:47:29.325Z,57.60
2023-02-09T21:49:57.218Z,57.38
2023-02-09T21:52:24.312Z,57.71
2023-02-09T21:54:51.591Z,58.15
2023-02-09T21:57:18.346Z,58.34
2023-02-09T21:59:44.897Z,58.37
2023-02-09T22:02:16.384Z,58.15
2023-02-09T22:04:44.468Z,58.19
2023-02-09T22:07:11.555Z,58.18
2023-02-09T22:09:38.177Z,58.20
2023-02-09T22:12:05.914Z,58.30
2023-02-09T22:14:33.157Z,58.08
2023-02-09T22:16:59.837Z,58.08
2023-02-09T22:19:26.611Z,57.99
2023-02-09T22:21:53.219Z,57.64
2023-02-09T22:24:19.846Z,57.10
2023-02-09T22:26:47.129Z,57.40
2023-02-09T22:29:15.115Z,57.69
2023-02-09T22:31:42.504Z,58.20
2023-02-09T22:34:09.426Z,58.37
2023-02-09T22:36:36.457Z,57.78
2023-02-09T22:39:05.290Z,57.55
2023-02-09T22:41:32.196Z,56.99
2023-02-09T22:44:12.339Z,56.98
2023-02-09T22:46:41.392Z,56.35
2023-02-09T22:49:12.738Z,56.11
2023-02-09T22:51:39.294Z,56.13
2023-02-09T22:54:06.264Z,56.18
2023-02-09T22:56:32.974Z,56.15
2023-02-09T22:59:00.731Z,56.22
2023-02-09T23:01:29.462Z,55.94
2023-02-09T23:03:56.655Z,55.99
2023-02-09T23:06:26.904Z,55.85
2023-02-09T23:08:55.568Z,56.43
2023-02-09T23:11:22.826Z,57.08
2023-02-09T23:14:00.437Z,56.74
2023-02-09T23:16:34.217Z,56.48
2023-02-09T23:19:03.257Z,56.67
2023-02-09T23:21:35.625Z,56.71
2023-02-09T23:24:02.556Z,56.39
2023-02-09T23:26:29.490Z,56.08
2023-02-09T23:28:58.892Z,56.07
2023-02-09T23:31:26.775Z,55.87
2023-02-09T23:33:53.619Z,55.89
2023-02-09T23:36:23.622Z,55.83
2023-02-09T23:38:55.728Z,56.05
2023-02-09T23:41:22.832Z,56.61
2023-02-09T23:43:49.872Z,56.02
2023-02-09T23:46:20.415Z,55.73
2023-02-09T23:48:47.930Z,55.99
2023-02-09T23:51:20.875Z,56.26
2023-02-09T23:53:48.173Z,56.54
2023-02-09T23:56:17.406Z,56.69
2023-02-09T23:58:47.303Z,56.64
